LIBP/PSR METAR and TAF weather

Enter ICAO airport designator
Station Type Date Time Source
LIBP METAR 2020/09/24 10:50 UTC NOAA

LIBP 241050Z AUTO 07009KT 040V100 9999 NCD 27/14 Q1012


Station Type Date Time Source
LIBP Decoded METAR 2020/09/24 10:50 UTC NOAA

Pescara, Italy (LIBP) 42-26N 014-12E 11M
Sep 24, 2020 - 06:50 AM EDT / 2020.09.24 1050 UTC
Wind: from the ENE (070 degrees) at 10 MPH (9 KT) (direction variable):0
Visibility: greater than 7 mile(s):0
Temperature: 80 F (27 C)
Dew Point: 57 F (14 C)
Relative Humidity: 44%
Pressure (altimeter): 29.88 in. Hg (1012 hPa)
ob: LIBP 241050Z AUTO 07009KT 040V100 9999 NCD 27/14 Q1012
cycle: 11

Station Type Date Time Source
LIBP TAF 2020/09/24 06:21 UTC NOAA

TAF LIBP 240500Z 2406/2506 VRB05KT 9999 SCT040
BECMG 2411/2413 07010KT
BECMG 2416/2418 VRB04KT

Example: see airport list